createdAt,value
2016-08-01T00:00:17.486Z,97.18
2016-08-01T00:01:17.511Z,97.04
2016-08-01T00:02:17.538Z,96.85
2016-08-01T00:03:17.562Z,97.18
2016-08-01T00:04:17.589Z,96.99
2016-08-01T00:05:17.614Z,96.99
2016-08-01T00:06:17.645Z,97.18
2016-08-01T00:07:17.667Z,96.89
2016-08-01T00:08:17.697Z,97.09
2016-08-01T00:09:17.722Z,97.38
2016-08-01T00:10:17.746Z,97.85
2016-08-01T00:11:32.696Z,97.28
2016-08-01T00:12:17.802Z,97.09
2016-08-01T00:13:17.827Z,97.09
2016-08-01T00:14:17.852Z,97.18
2016-08-01T00:15:17.882Z,97.38
2016-08-01T00:16:17.901Z,97.76
2016-08-01T00:17:17.984Z,97.18
2016-08-01T00:18:17.956Z,97.09
2016-08-01T00:19:17.983Z,97.18
2016-08-01T00:20:18.008Z,97.38
2016-08-01T00:21:18.034Z,97.09
2016-08-01T00:22:18.059Z,96.8
2016-08-01T00:23:18.087Z,97.95
2016-08-01T00:24:18.127Z,97.28
2016-08-01T00:25:18.140Z,97.56
2016-08-01T00:26:18.168Z,97.66
2016-08-01T00:27:33.117Z,97.85
2016-08-01T00:29:18.243Z,97.66
2016-08-01T00:30:18.275Z,98.05
2016-08-01T00:31:18.297Z,97.76
2016-08-01T00:32:18.324Z,97.95
2016-08-01T00:33:18.352Z,97.95
2016-08-01T00:34:18.378Z,97.95
2016-08-01T00:35:18.405Z,97.85
2016-08-01T00:36:18.429Z,98.24
2016-08-01T00:37:18.452Z,97.85
2016-08-01T00:38:18.478Z,98.05
2016-08-01T00:40:18.532Z,98.14
2016-08-01T00:41:18.561Z,98.05
2016-08-01T00:42:18.588Z,97.95
2016-08-01T00:43:33.541Z,97.95
2016-08-01T00:44:18.639Z,98
2016-08-01T00:45:18.663Z,97.61
2016-08-01T00:46:18.691Z,97.61
2016-08-01T00:47:18.718Z,98.1
2016-08-01T00:48:18.739Z,98.38
2016-08-01T00:49:18.769Z,98.67
2016-08-01T00:50:18.797Z,98.28
2016-08-01T00:51:18.823Z,98.19
2016-08-01T00:52:18.848Z,98
2016-08-01T00:53:18.877Z,98.1
2016-08-01T00:54:18.896Z,98.38
2016-08-01T00:56:18.952Z,98
2016-08-01T00:57:18.978Z,97.61
2016-08-01T00:58:19.057Z,97.9
2016-08-01T00:59:33.952Z,98.19
2016-08-01T01:01:19.083Z,98.1
2016-08-01T01:02:19.107Z,97.71
2016-08-01T01:03:19.130Z,98.38
2016-08-01T01:04:19.156Z,98.38
2016-08-01T01:05:19.188Z,98
2016-08-01T01:06:19.207Z,98.28
2016-08-01T01:07:19.239Z,98.19
2016-08-01T01:08:19.263Z,98.28
2016-08-01T01:09:19.291Z,98.19
2016-08-01T01:10:19.314Z,98.28
2016-08-01T01:11:19.342Z,98
2016-08-01T01:12:19.366Z,97.71
2016-08-01T01:13:19.404Z,97.9
2016-08-01T01:14:34.346Z,98.1
2016-08-01T01:15:19.446Z,97.9
2016-08-01T01:16:19.471Z,98.1
2016-08-01T01:17:19.498Z,97.9
2016-08-01T01:18:19.524Z,98
2016-08-01T01:19:19.553Z,98.28
2016-08-01T01:20:19.575Z,98.1
2016-08-01T01:21:19.600Z,98.19
2016-08-01T01:22:19.630Z,98
2016-08-01T01:23:19.649Z,98.24
2016-08-01T01:24:19.679Z,98.14
2016-08-01T01:25:19.705Z,98.38
2016-08-01T01:26:19.734Z,98.38
2016-08-01T01:27:19.757Z,98.38
2016-08-01T01:28:19.781Z,98.62
2016-08-01T01:29:19.810Z,98.14
2016-08-01T01:30:19.845Z,98.14
2016-08-01T01:31:19.861Z,98.52
2016-08-01T01:32:19.885Z,98.62
2016-08-01T01:33:19.967Z,98.71
2016-08-01T01:34:19.939Z,98.33
2016-08-01T01:35:19.962Z,98.43
2016-08-01T01:36:19.991Z,98.24
2016-08-01T01:37:20.015Z,99
2016-08-01T01:38:20.046Z,98.62
2016-08-01T01:39:20.119Z,98.91
2016-08-01T01:40:20.094Z,98.81
2016-08-01T01:41:20.120Z,98.71
2016-08-01T01:42:20.143Z,98.71
2016-08-01T01:43:20.172Z,98.71
2016-08-01T01:44:20.201Z,98.71
2016-08-01T01:45:20.227Z,98.71
2016-08-01T01:46:35.173Z,98.71
2016-08-01T01:47:20.277Z,99.1
2016-08-01T01:48:20.301Z,98.91
2016-08-01T01:49:20.326Z,99
2016-08-01T01:50:20.352Z,99.19
2016-08-01T01:51:20.383Z,98.71
2016-08-01T01:52:20.403Z,98.81
2016-08-01T01:53:20.427Z,98.81
2016-08-01T01:54:20.456Z,98.62
2016-08-01T01:55:20.482Z,98.71
2016-08-01T01:56:20.503Z,98.91
2016-08-01T01:57:20.536Z,99.38
2016-08-01T01:58:20.561Z,99.19
2016-08-01T02:01:20.639Z,98.52
2016-08-01T02:02:35.585Z,98.52
2016-08-01T02:03:20.691Z,98.66
2016-08-01T02:04:20.717Z,98.71
2016-08-01T02:05:20.737Z,98.71
2016-08-01T02:06:20.769Z,98.52
2016-08-01T02:07:20.795Z,98.71
2016-08-01T02:08:20.816Z,99.1
2016-08-01T02:09:20.847Z,98.71
2016-08-01T02:10:20.871Z,98.52
2016-08-01T02:11:20.895Z,98.24
2016-08-01T02:12:20.917Z,98.05
2016-08-01T02:13:20.949Z,98.24
2016-08-01T02:14:20.974Z,98.33
2016-08-01T02:15:20.999Z,97.95
2016-08-01T02:16:21.026Z,98
2016-08-01T02:17:21.050Z,98.14
2016-08-01T02:18:35.999Z,98.33
2016-08-01T02:19:21.111Z,98.28
2016-08-01T02:20:21.131Z,97.9
2016-08-01T02:21:21.156Z,98.09
2016-08-01T02:22:21.177Z,98.14
2016-08-01T02:23:21.203Z,98.09
2016-08-01T02:24:21.225Z,97.9
2016-08-01T02:25:21.256Z,98
2016-08-01T02:26:21.281Z,98.19
2016-08-01T02:27:21.304Z,98
2016-08-01T02:28:21.333Z,98.19
2016-08-01T02:29:21.354Z,97.9
2016-08-01T02:30:21.383Z,98
2016-08-01T02:31:21.410Z,98.19
2016-08-01T02:32:21.436Z,98.19
2016-08-01T02:33:21.457Z,98.09
2016-08-01T02:34:36.408Z,98.28
2016-08-01T02:35:21.512Z,98.19
2016-08-01T02:36:21.536Z,98.47
2016-08-01T02:37:21.560Z,98.86
2016-08-01T02:38:21.586Z,98.86
2016-08-01T02:39:21.614Z,98.47
2016-08-01T02:40:21.637Z,98.38
2016-08-01T02:41:21.715Z,98.76
2016-08-01T02:42:21.692Z,98.76
2016-08-01T02:43:21.720Z,98.66
2016-08-01T02:44:21.745Z,99.24
2016-08-01T02:45:21.772Z,99.24
2016-08-01T02:47:21.817Z,99.33
2016-08-01T02:48:21.851Z,99.99
2016-08-01T02:49:36.796Z,99.99
2016-08-01T02:50:21.896Z,99.99
2016-08-01T02:51:21.922Z,99.99
2016-08-01T02:52:21.949Z,99.99
2016-08-01T02:53:21.978Z,99.99
2016-08-01T02:54:22.012Z,99.99
2016-08-01T02:55:22.021Z,99.99
2016-08-01T02:56:22.050Z,99.99
2016-08-01T02:57:22.080Z,99.99
2016-08-01T02:58:22.102Z,99.99
2016-08-01T02:59:22.129Z,99.99
2016-08-01T03:00:22.157Z,99.99
2016-08-01T03:01:22.190Z,99.99
2016-08-01T03:02:22.205Z,99.99
2016-08-01T03:03:22.233Z,99.99
2016-08-01T03:04:22.259Z,99.99
2016-08-01T03:05:22.279Z,99.99
2016-08-01T03:06:22.306Z,99.99
2016-08-01T03:07:22.334Z,99.99
2016-08-01T03:08:22.363Z,99.99
2016-08-01T03:09:22.386Z,99.99
2016-08-01T03:10:22.417Z,99.99
2016-08-01T03:11:22.436Z,99.99
2016-08-01T03:12:22.461Z,99.99
2016-08-01T03:13:22.489Z,99.99
2016-08-01T03:14:22.510Z,99.99
2016-08-01T03:15:22.540Z,99.99
2016-08-01T03:16:22.564Z,99.99
2016-08-01T03:17:22.591Z,99.99
2016-08-01T03:18:22.615Z,99.99
2016-08-01T03:19:22.640Z,99.99
2016-08-01T03:20:22.666Z,99.99
2016-08-01T03:21:37.613Z,99.99
2016-08-01T03:22:22.720Z,99.99
2016-08-01T03:23:22.738Z,99.99
2016-08-01T03:24:22.770Z,99.99
2016-08-01T03:25:22.791Z,99.99
2016-08-01T03:26:22.823Z,99.99
2016-08-01T03:27:22.856Z,99.99
2016-08-01T03:28:22.872Z,99.99
2016-08-01T03:29:22.894Z,99.99
2016-08-01T03:31:22.946Z,99.99
2016-08-01T03:32:22.970Z,99.99
2016-08-01T03:33:23.001Z,99.99
2016-08-01T03:34:23.042Z,99.99
2016-08-01T03:35:23.048Z,99.99
2016-08-01T03:36:23.121Z,99.99
2016-08-01T03:37:38.025Z,99.99
2016-08-01T03:38:23.127Z,99.99
2016-08-01T03:39:23.154Z,99.99
2016-08-01T03:40:23.178Z,99.99
2016-08-01T03:41:23.214Z,99.99
2016-08-01T03:42:23.227Z,99.99
2016-08-01T03:43:23.252Z,99.99
2016-08-01T03:44:23.283Z,99.99
2016-08-01T03:45:23.301Z,99.99
2016-08-01T03:46:23.328Z,99.99
2016-08-01T03:47:23.358Z,99.99
2016-08-01T03:48:23.378Z,99.99
2016-08-01T03:49:23.409Z,99.99
2016-08-01T03:50:23.433Z,99.99
2016-08-01T03:51:23.458Z,99.99
2016-08-01T03:53:38.434Z,99.99
2016-08-01T03:54:23.531Z,99.99
2016-08-01T03:55:23.562Z,99.99
2016-08-01T03:56:23.589Z,99.99
2016-08-01T03:57:23.607Z,99.99
2016-08-01T03:58:23.642Z,99.99
2016-08-01T03:59:23.666Z,99.99
2016-08-01T04:00:23.685Z,99.99
2016-08-01T04:01:23.717Z,99.77
2016-08-01T04:02:23.753Z,99.87
2016-08-01T04:03:23.768Z,99.87
2016-08-01T04:05:23.817Z,99.77
2016-08-01T04:06:23.847Z,99.77
2016-08-01T04:07:23.869Z,99.48
2016-08-01T04:08:23.895Z,99.99
2016-08-01T04:09:38.841Z,99.77
2016-08-01T04:10:23.945Z,99.99
2016-08-01T04:11:23.974Z,99.77
2016-08-01T04:12:23.993Z,99.87
2016-08-01T04:13:24.021Z,99.77
2016-08-01T04:14:24.046Z,99.58
2016-08-01T04:15:24.075Z,99.87
2016-08-01T04:16:24.099Z,99.19
2016-08-01T04:17:24.126Z,99.19
2016-08-01T04:18:24.153Z,98.96
2016-08-01T04:20:24.200Z,98.86
2016-08-01T04:22:24.258Z,98
2016-08-01T04:23:24.278Z,98.28
2016-08-01T04:24:39.228Z,97.71
2016-08-01T04:25:24.334Z,97.71
2016-08-01T04:26:24.363Z,97.9
2016-08-01T04:27:24.387Z,96.94
2016-08-01T04:28:24.413Z,97.33
2016-08-01T04:29:24.434Z,97.04
2016-08-01T04:30:24.456Z,96.56
2016-08-01T04:31:24.489Z,96.47
2016-08-01T04:32:24.511Z,96.84
2016-08-01T04:33:24.534Z,96.66
2016-08-01T04:35:24.588Z,96.75
2016-08-01T04:38:24.668Z,95.7
2016-08-01T04:39:24.693Z,96.08
2016-08-01T04:40:24.718Z,95.41
2016-08-01T04:41:24.739Z,95.03
2016-08-01T04:42:24.768Z,95.22
2016-08-01T04:43:24.799Z,94.55
2016-08-01T04:44:24.824Z,94.64
2016-08-01T04:45:24.850Z,94.45
2016-08-01T04:46:24.876Z,93.88
2016-08-01T04:47:24.896Z,94.45
2016-08-01T04:48:24.927Z,94.12
2016-08-01T04:50:25.029Z,92.68
2016-08-01T04:51:25.002Z,93.06
2016-08-01T04:54:25.083Z,92.49
2016-08-01T04:55:25.104Z,92.77
2016-08-01T04:56:40.056Z,91.19
2016-08-01T04:57:25.162Z,91.09
2016-08-01T04:58:25.191Z,90.42
2016-08-01T04:59:25.209Z,89.41
2016-08-01T05:00:25.240Z,88.55
2016-08-01T05:01:25.265Z,88.17
2016-08-01T05:02:25.293Z,87.68
2016-08-01T05:03:25.316Z,86.58
2016-08-01T05:05:25.372Z,83.01
2016-08-01T05:06:25.399Z,83.4
2016-08-01T05:07:25.424Z,80.84
2016-08-01T05:08:25.453Z,77.08
2016-08-01T05:10:25.511Z,76.73
2016-08-01T05:11:25.535Z,75.73
2016-08-01T05:12:40.487Z,75.13
2016-08-01T05:15:25.648Z,73.62
2016-08-01T05:16:25.677Z,71.89
2016-08-01T05:17:25.709Z,69.8
2016-08-01T05:18:25.736Z,68.01
2016-08-01T05:20:25.793Z,66.14
2016-08-01T05:21:25.830Z,64.92
2016-08-01T05:22:25.856Z,65.78
2016-08-01T05:23:25.885Z,68.01
2016-08-01T05:25:25.946Z,70.38
2016-08-01T05:26:25.979Z,70.54
2016-08-01T05:28:40.964Z,71.22
2016-08-01T05:29:26.069Z,71.89
2016-08-01T05:30:26.100Z,70.92
2016-08-01T05:31:26.133Z,71.41
2016-08-01T05:32:26.161Z,68.68
2016-08-01T05:33:26.193Z,68.19
2016-08-01T05:35:26.255Z,67.78
2016-08-01T05:36:26.285Z,64.76
2016-08-01T05:37:26.315Z,63.24
2016-08-01T05:38:26.345Z,63.92
2016-08-01T05:39:26.373Z,62.21
2016-08-01T05:40:26.407Z,59.73
2016-08-01T05:41:26.441Z,58.04
2016-08-01T05:42:26.473Z,56.26
2016-08-01T05:43:26.500Z,55.22
2016-08-01T05:44:41.462Z,54.91
2016-08-01T05:45:26.570Z,54.64
2016-08-01T05:46:26.603Z,53.39
2016-08-01T05:47:26.634Z,52.34
2016-08-01T05:48:26.671Z,50.84
2016-08-01T05:50:26.739Z,50.84
2016-08-01T05:51:26.774Z,50.07
2016-08-01T05:52:26.806Z,50.16
2016-08-01T05:53:26.840Z,48.15
2016-08-01T05:54:26.867Z,48.83
2016-08-01T05:55:26.907Z,50.6
2016-08-01T05:56:26.940Z,49.92
2016-08-01T05:58:27.006Z,52.2
2016-08-01T05:59:41.966Z,51.35
2016-08-01T06:00:27.077Z,52.87
2016-08-01T06:01:27.109Z,51.45
2016-08-01T06:02:27.143Z,50.41
2016-08-01T06:03:27.181Z,49.68
2016-08-01T06:05:27.242Z,51.32
2016-08-01T06:07:27.315Z,49.37
2016-08-01T06:08:27.344Z,48.88
2016-08-01T06:09:27.381Z,49.54
2016-08-01T06:10:27.419Z,47.83
2016-08-01T06:11:27.449Z,45.84
2016-08-01T06:12:27.484Z,45.97
2016-08-01T06:13:27.516Z,47.88
2016-08-01T06:14:28.251Z,49.24
2016-08-01T06:15:27.598Z,49.73
2016-08-01T06:16:27.626Z,49.63
2016-08-01T06:17:27.653Z,49.56
2016-08-01T06:18:27.695Z,49.56
2016-08-01T06:19:27.726Z,48.78
2016-08-01T06:20:27.760Z,47.35
2016-08-01T06:21:27.794Z,47.06
2016-08-01T06:22:27.827Z,46.98
2016-08-01T06:23:27.862Z,45.94
2016-08-01T06:24:27.902Z,45.18
2016-08-01T06:25:27.933Z,43.95
2016-08-01T06:26:27.967Z,44.51
2016-08-01T06:27:27.998Z,43.24
2016-08-01T06:28:28.037Z,42.31
2016-08-01T06:29:28.073Z,43.96
2016-08-01T06:30:28.105Z,43.85
2016-08-01T06:31:43.067Z,41.65
2016-08-01T06:32:28.176Z,40.91
2016-08-01T06:33:28.212Z,39.75
2016-08-01T06:34:28.245Z,39.65
2016-08-01T06:35:28.279Z,40.6
2016-08-01T06:36:28.311Z,42.72
2016-08-01T06:37:28.354Z,43.73
2016-08-01T06:38:28.381Z,42.31
2016-08-01T06:39:28.421Z,41.38
2016-08-01T06:40:28.456Z,39.28
2016-08-01T06:41:28.485Z,41.65
2016-08-01T06:42:28.526Z,40.39
2016-08-01T06:43:28.562Z,41.83
2016-08-01T06:44:28.599Z,41.14
2016-08-01T06:45:28.628Z,41.16
2016-08-01T06:46:28.718Z,40.7
2016-08-01T06:47:43.628Z,43.48
2016-08-01T06:48:28.738Z,42.36
2016-08-01T06:49:28.778Z,43.24
2016-08-01T06:50:28.801Z,45.43
2016-08-01T06:51:28.846Z,45.62
2016-08-01T06:52:28.876Z,47.03
2016-08-01T06:53:28.907Z,47.4
2016-08-01T06:54:28.948Z,46.33
2016-08-01T06:55:28.980Z,47.2
2016-08-01T06:56:29.011Z,48.06
2016-08-01T06:57:29.049Z,46.82
2016-08-01T06:58:29.085Z,46.72
2016-08-01T06:59:29.115Z,46.62
2016-08-01T07:00:29.150Z,46.36
2016-08-01T07:01:29.183Z,46.65
2016-08-01T07:02:29.218Z,49.39
2016-08-01T07:03:44.177Z,50.62
2016-08-01T07:04:29.288Z,51.28
2016-08-01T07:05:29.319Z,52.05
2016-08-01T07:06:29.354Z,50.79
2016-08-01T07:07:29.387Z,50.45
2016-08-01T07:08:29.421Z,50.74
2016-08-01T07:09:29.456Z,51.23
2016-08-01T07:10:29.498Z,50.92
2016-08-01T07:11:29.519Z,51.01
2016-08-01T07:12:29.556Z,52.17
2016-08-01T07:13:29.592Z,50.92
2016-08-01T07:14:29.623Z,51.52
2016-08-01T07:15:29.652Z,50.74
2016-08-01T07:16:29.687Z,49.12
2016-08-01T07:17:29.722Z,49.24
2016-08-01T07:18:29.755Z,50.48
2016-08-01T07:19:44.714Z,49.19
2016-08-01T07:20:29.821Z,49.22
2016-08-01T07:21:29.856Z,50.43
2016-08-01T07:22:29.888Z,50.43
2016-08-01T07:23:29.919Z,49.65
2016-08-01T07:24:29.958Z,49.19
2016-08-01T07:25:29.991Z,49.29
2016-08-01T07:26:30.021Z,48.52
2016-08-01T07:27:30.055Z,47.86
2016-08-01T07:28:30.087Z,46.53
2016-08-01T07:29:30.118Z,47.11
2016-08-01T07:30:30.150Z,45.58
2016-08-01T07:31:30.185Z,43.2
2016-08-01T07:32:30.219Z,43.4
2016-08-01T07:34:45.214Z,43.4
2016-08-01T07:36:30.351Z,43.2
2016-08-01T07:37:30.389Z,43.76
2016-08-01T07:38:30.420Z,43.59
2016-08-01T07:39:30.455Z,44.44
2016-08-01T07:40:30.490Z,44.23
2016-08-01T07:41:30.523Z,43.57
2016-08-01T07:42:30.555Z,42.81
2016-08-01T07:43:30.637Z,41.38
2016-08-01T07:44:30.626Z,42.46
2016-08-01T07:45:30.660Z,42.02
2016-08-01T07:46:30.756Z,39.31
2016-08-01T07:47:30.724Z,38.93
2016-08-01T07:48:30.758Z,38.93
2016-08-01T07:49:30.796Z,39.2
2016-08-01T07:50:30.832Z,40.66
2016-08-01T07:51:30.865Z,40.83
2016-08-01T07:52:30.899Z,40.62
2016-08-01T07:53:30.930Z,39.08
2016-08-01T07:54:30.963Z,37.37
2016-08-01T07:55:31.003Z,37.46
2016-08-01T07:56:31.034Z,37.1
2016-08-01T07:57:31.070Z,38.46
2016-08-01T07:58:31.101Z,38.07
2016-08-01T07:59:31.136Z,36.53
2016-08-01T08:00:31.179Z,37.99
2016-08-01T08:01:31.204Z,36.24
2016-08-01T08:02:31.256Z,36.88
2016-08-01T08:04:31.316Z,39.2
2016-08-01T08:05:31.345Z,41.13
2016-08-01T08:06:46.303Z,40.06
2016-08-01T08:07:31.416Z,40.6
2016-08-01T08:08:32.141Z,41.36
2016-08-01T08:09:31.482Z,39.75
2016-08-01T08:10:31.516Z,37.54
2016-08-01T08:11:31.563Z,38.15
2016-08-01T08:12:31.583Z,39.18
2016-08-01T08:13:31.621Z,39.37
2016-08-01T08:14:31.654Z,38.5
2016-08-01T08:15:31.690Z,38.11
2016-08-01T08:16:31.724Z,38.91
2016-08-01T08:17:31.757Z,38.64
2016-08-01T08:18:31.791Z,36.24
2016-08-01T08:20:31.859Z,35.88
2016-08-01T08:21:31.897Z,36.84
2016-08-01T08:22:46.855Z,36.51
2016-08-01T08:23:31.967Z,36.4
2016-08-01T08:24:32.005Z,37.27
2016-08-01T08:25:32.085Z,37.56
2016-08-01T08:26:32.073Z,37.66
2016-08-01T08:27:32.105Z,37.37
2016-08-01T08:28:32.141Z,37.46
2016-08-01T08:29:32.171Z,35.15
2016-08-01T08:30:32.218Z,34.89
2016-08-01T08:31:32.239Z,35
2016-08-01T08:32:32.276Z,35.2
2016-08-01T08:33:32.312Z,35.28
2016-08-01T08:34:32.349Z,37.06
2016-08-01T08:35:32.380Z,38.46
2016-08-01T08:37:32.446Z,41.49
2016-08-01T08:38:47.405Z,43.6
2016-08-01T08:40:32.548Z,44.43
2016-08-01T08:41:32.589Z,45.49
2016-08-01T08:42:32.634Z,46.51
2016-08-01T08:43:32.653Z,46.32
2016-08-01T08:44:32.686Z,46.68
2016-08-01T08:45:32.727Z,46.39
2016-08-01T08:46:32.754Z,46.12
2016-08-01T08:47:32.782Z,47.14
2016-08-01T08:48:32.815Z,47.33
2016-08-01T08:49:32.851Z,45.64
2016-08-01T08:51:32.917Z,44.18
2016-08-01T08:52:32.950Z,42.07
2016-08-01T08:53:32.981Z,42.09
2016-08-01T08:54:47.940Z,39.88
2016-08-01T08:55:33.047Z,38.85
2016-08-01T08:56:33.082Z,40.69
2016-08-01T08:57:33.114Z,40.29
2016-08-01T08:58:33.148Z,41.12
2016-08-01T08:59:33.231Z,42.11
2016-08-01T09:00:33.208Z,41.22
2016-08-01T09:01:33.246Z,42.26
2016-08-01T09:02:33.284Z,42.67
2016-08-01T09:03:33.313Z,41.33
2016-08-01T09:04:33.350Z,39.92
2016-08-01T09:05:33.378Z,38.5
2016-08-01T09:06:33.410Z,38.21
2016-08-01T09:08:33.480Z,37.56
2016-08-01T09:09:48.437Z,39.26
2016-08-01T09:10:33.543Z,40.09
2016-08-01T09:11:33.573Z,42.48
2016-08-01T09:12:33.606Z,42.19
2016-08-01T09:13:33.643Z,43.82
2016-08-01T09:14:33.678Z,41.78
2016-08-01T09:15:33.707Z,42.75
2016-08-01T09:16:33.739Z,42.48
2016-08-01T09:17:33.775Z,41.84
2016-08-01T09:18:33.803Z,38.57
2016-08-01T09:19:33.841Z,37.06
2016-08-01T09:20:33.872Z,35.21
2016-08-01T09:21:33.908Z,33.95
2016-08-01T09:22:33.945Z,34.9
2016-08-01T09:23:33.970Z,36.15
2016-08-01T09:26:34.120Z,33.77
2016-08-01T09:27:34.105Z,34.53
2016-08-01T09:28:34.137Z,36.24
2016-08-01T09:29:34.173Z,35.49
2016-08-01T09:30:34.205Z,37.45
2016-08-01T09:31:34.235Z,36.3
2016-08-01T09:32:34.270Z,35.25
2016-08-01T09:33:34.394Z,36.12
2016-08-01T09:34:34.333Z,35.63
2016-08-01T09:35:34.376Z,36.87
2016-08-01T09:36:34.401Z,37.41
2016-08-01T09:37:34.438Z,37.01
2016-08-01T09:38:34.476Z,37.51
2016-08-01T09:39:34.504Z,36.05
2016-08-01T09:40:34.536Z,36.07
2016-08-01T09:41:49.493Z,36.26
2016-08-01T09:42:34.605Z,35.68
2016-08-01T09:43:34.638Z,35.7
2016-08-01T09:44:34.665Z,35.71
2016-08-01T09:45:34.700Z,35.15
2016-08-01T09:46:34.736Z,35.53
2016-08-01T09:47:34.768Z,36
2016-08-01T09:48:35.503Z,34.25
2016-08-01T09:49:34.829Z,34.95
2016-08-01T09:50:34.868Z,35.6
2016-08-01T09:51:34.902Z,35.41
2016-08-01T09:52:34.932Z,33.85
2016-08-01T09:53:34.964Z,35.5
2016-08-01T09:54:35.001Z,35.41
2016-08-01T09:57:50.023Z,34.74
2016-08-01T09:58:35.133Z,35.99
2016-08-01T09:59:35.213Z,36
2016-08-01T10:00:35.196Z,37.92
2016-08-01T10:02:35.262Z,38.48
2016-08-01T10:03:35.295Z,38.6
2016-08-01T10:04:35.328Z,37.41
2016-08-01T10:05:35.363Z,38.95
2016-08-01T10:06:35.399Z,39.8
2016-08-01T10:07:35.425Z,39.39
2016-08-01T10:08:35.456Z,40.01
2016-08-01T10:09:35.490Z,36.83
2016-08-01T10:10:35.528Z,37.04
2016-08-01T10:11:35.561Z,37.06
2016-08-01T10:12:35.588Z,36
2016-08-01T10:13:50.545Z,36.32
2016-08-01T10:14:35.659Z,34.19
2016-08-01T10:15:35.686Z,32.92
2016-08-01T10:16:35.718Z,35.44
2016-08-01T10:17:35.751Z,36.08
2016-08-01T10:18:36.478Z,37.88
2016-08-01T10:19:35.819Z,39.2
2016-08-01T10:20:35.848Z,40.42
2016-08-01T10:21:35.881Z,40.23
2016-08-01T10:22:35.915Z,41.05
2016-08-01T10:23:35.946Z,36.83
2016-08-01T10:24:35.978Z,37.06
2016-08-01T10:25:36.011Z,36.2
2016-08-01T10:26:36.043Z,36
2016-08-01T10:27:36.078Z,36.22
2016-08-01T10:28:36.107Z,37.37
2016-08-01T10:29:51.069Z,37.51
2016-08-01T10:30:36.173Z,39.9
2016-08-01T10:31:36.208Z,39.22
2016-08-01T10:32:36.277Z,39.98
2016-08-01T10:33:36.273Z,40.46
2016-08-01T10:34:36.306Z,38.54
2016-08-01T10:35:36.337Z,38.95
2016-08-01T10:36:36.373Z,38.07
2016-08-01T10:37:36.403Z,38.27
2016-08-01T10:38:36.436Z,37.96
2016-08-01T10:39:36.462Z,39.39
2016-08-01T10:40:36.498Z,40.23
2016-08-01T10:41:36.530Z,42.82
2016-08-01T10:42:36.560Z,42.05
2016-08-01T10:43:36.592Z,42.65
2016-08-01T10:44:51.553Z,41.39
2016-08-01T10:45:36.661Z,43.13
2016-08-01T10:46:36.692Z,40.42
2016-08-01T10:47:36.721Z,42.54
2016-08-01T10:48:36.758Z,43.43
2016-08-01T10:49:36.792Z,42.26
2016-08-01T10:51:36.854Z,41.58
2016-08-01T10:52:36.884Z,41.2
2016-08-01T10:53:36.916Z,41.68
2016-08-01T10:54:36.946Z,41.93
2016-08-01T10:55:36.982Z,41.55
2016-08-01T10:58:37.075Z,41.83
2016-08-01T11:00:37.183Z,43
2016-08-01T11:01:37.169Z,42.32
2016-08-01T11:02:37.198Z,42.9
2016-08-01T11:03:37.234Z,42.41
2016-08-01T11:04:37.257Z,43.27
2016-08-01T11:06:37.326Z,43.05
2016-08-01T11:07:37.354Z,44.21
2016-08-01T11:08:37.387Z,42.86
2016-08-01T11:09:37.417Z,44.21
2016-08-01T11:10:37.448Z,43.44
2016-08-01T11:11:37.478Z,44.62
2016-08-01T11:12:37.513Z,43.17
2016-08-01T11:13:37.549Z,43.87
2016-08-01T11:14:37.577Z,42.41
2016-08-01T11:15:37.606Z,42.24
2016-08-01T11:16:52.561Z,43.6
2016-08-01T11:17:37.664Z,42.82
2016-08-01T11:18:37.699Z,40.99
2016-08-01T11:19:37.729Z,42.32
2016-08-01T11:21:37.793Z,43.15
2016-08-01T11:22:38.520Z,44.19
2016-08-01T11:23:37.850Z,46.12
2016-08-01T11:24:37.884Z,45.25
2016-08-01T11:25:37.918Z,45.47
2016-08-01T11:26:37.945Z,45.37
2016-08-01T11:27:37.976Z,46.03
2016-08-01T11:28:38.011Z,45.54
2016-08-01T11:29:38.033Z,46
2016-08-01T11:30:38.072Z,46
2016-08-01T11:32:53.056Z,45.16
2016-08-01T11:33:38.159Z,46.32
2016-08-01T11:34:38.200Z,45.95
2016-08-01T11:36:38.247Z,46.44
2016-08-01T11:37:38.281Z,45.28
2016-08-01T11:38:38.316Z,46.17
2016-08-01T11:39:38.447Z,45.49
2016-08-01T11:40:38.379Z,45.49
2016-08-01T11:42:38.435Z,45.47
2016-08-01T11:43:38.465Z,46.22
2016-08-01T11:45:38.524Z,46.15
2016-08-01T11:46:38.564Z,46.05
2016-08-01T11:48:53.542Z,46.44
2016-08-01T11:49:39.343Z,47.02
2016-08-01T11:50:38.680Z,47.28
2016-08-01T11:51:38.713Z,47.02
2016-08-01T11:52:38.740Z,47.96
2016-08-01T11:53:38.765Z,46.9
2016-08-01T11:54:38.802Z,47.16
2016-08-01T11:55:38.833Z,48.52
2016-08-01T11:56:38.856Z,48.9
2016-08-01T11:57:38.897Z,49.65
2016-08-01T11:58:38.925Z,49.73
2016-08-01T11:59:38.951Z,50.33
2016-08-01T12:00:38.982Z,50.21
2016-08-01T12:01:39.010Z,50.11
2016-08-01T12:02:39.045Z,50.67
2016-08-01T12:03:39.076Z,51.73
2016-08-01T12:04:54.079Z,52.01
2016-08-01T12:05:39.133Z,52.11
2016-08-01T12:06:39.168Z,51.82
2016-08-01T12:07:39.192Z,52.5
2016-08-01T12:08:39.227Z,52.89
2016-08-01T12:09:39.251Z,53.75
2016-08-01T12:10:39.281Z,53.56
2016-08-01T12:11:39.312Z,54.05
2016-08-01T12:12:39.344Z,56.43
2016-08-01T12:13:39.373Z,55.85
2016-08-01T12:14:39.403Z,56.4
2016-08-01T12:15:39.434Z,55.92
2016-08-01T12:16:39.461Z,55.36
2016-08-01T12:17:39.493Z,55.27
2016-08-01T12:18:39.524Z,56.62
2016-08-01T12:19:54.475Z,54.5
2016-08-01T12:20:39.577Z,54.6
2016-08-01T12:21:39.609Z,54.53
2016-08-01T12:22:39.634Z,53.08
2016-08-01T12:23:39.664Z,54.82
2016-08-01T12:24:39.704Z,53.47
2016-08-01T12:25:39.722Z,52.89
2016-08-01T12:26:39.750Z,53.11
2016-08-01T12:27:39.787Z,53.39
2016-08-01T12:28:39.815Z,51.78
2016-08-01T12:29:39.842Z,51.29
2016-08-01T12:30:39.879Z,49.77
2016-08-01T12:33:39.976Z,48.57
2016-08-01T12:34:39.994Z,48.37
2016-08-01T12:35:40.023Z,47.5
2016-08-01T12:36:40.061Z,48.27
2016-08-01T12:37:40.078Z,46.83
2016-08-01T12:38:40.108Z,47.31
2016-08-01T12:39:40.150Z,47.41
2016-08-01T12:40:40.168Z,46.83
2016-08-01T12:41:40.197Z,46.73
2016-08-01T12:42:40.229Z,47.11
2016-08-01T12:43:40.262Z,48.57
2016-08-01T12:44:40.287Z,47.69
2016-08-01T12:45:40.315Z,47.96
2016-08-01T12:47:40.378Z,49.65
2016-08-01T12:48:40.455Z,50.71
2016-08-01T12:49:40.441Z,50.13
2016-08-01T12:50:40.469Z,50.59
2016-08-01T12:51:55.419Z,51.75
2016-08-01T12:52:40.527Z,51.39
2016-08-01T12:53:40.555Z,50.62
2016-08-01T12:54:40.584Z,50.16
2016-08-01T12:55:40.619Z,49.68
2016-08-01T12:56:40.640Z,49.12
2016-08-01T12:57:40.674Z,48.06
2016-08-01T12:58:40.701Z,48.74
2016-08-01T12:59:40.731Z,49.29
2016-08-01T13:00:40.764Z,50.35
2016-08-01T13:01:40.795Z,48.83
2016-08-01T13:02:40.825Z,48.54
2016-08-01T13:04:40.879Z,48.27
2016-08-01T13:05:40.915Z,47.79
2016-08-01T13:06:40.943Z,48.08
2016-08-01T13:07:55.945Z,48.47
2016-08-01T13:08:41.003Z,47.89
2016-08-01T13:09:41.033Z,47.5
2016-08-01T13:10:41.058Z,46.92
2016-08-01T13:11:41.095Z,47.19
2016-08-01T13:12:41.117Z,47.31
2016-08-01T13:13:41.161Z,47.6
2016-08-01T13:14:41.180Z,48.06
2016-08-01T13:15:41.211Z,46.92
2016-08-01T13:16:41.234Z,47.69
2016-08-01T13:17:41.270Z,47.11
2016-08-01T13:18:41.299Z,47.79
2016-08-01T13:19:41.345Z,47.6
2016-08-01T13:20:41.357Z,48.25
2016-08-01T13:22:41.414Z,48.37
2016-08-01T13:23:56.373Z,46.25
2016-08-01T13:24:41.474Z,47.6
2016-08-01T13:25:41.506Z,47.31
2016-08-01T13:26:41.535Z,47.21
2016-08-01T13:27:41.567Z,48.57
2016-08-01T13:28:41.593Z,47.99
2016-08-01T13:29:41.628Z,47.69
2016-08-01T13:30:41.656Z,48.57
2016-08-01T13:31:41.732Z,48.18
2016-08-01T13:32:41.723Z,48.47
2016-08-01T13:33:41.743Z,47.6
2016-08-01T13:34:41.775Z,46.83
2016-08-01T13:35:41.805Z,46.44
2016-08-01T13:36:41.833Z,46.92
2016-08-01T13:37:41.867Z,47.5
2016-08-01T13:38:41.898Z,47.21
2016-08-01T13:39:56.849Z,47.21
2016-08-01T13:40:41.959Z,46.53
2016-08-01T13:41:41.984Z,47.96
2016-08-01T13:42:42.016Z,46.63
2016-08-01T13:43:42.046Z,47.5
2016-08-01T13:44:42.074Z,47.41
2016-08-01T13:45:42.802Z,46.53
2016-08-01T13:46:42.135Z,46.15
2016-08-01T13:47:42.177Z,46.12
2016-08-01T13:48:42.194Z,47.09
2016-08-01T13:49:42.226Z,48.71
2016-08-01T13:50:42.249Z,46.61
2016-08-01T13:51:42.285Z,47.48
2016-08-01T13:53:42.343Z,46.9
2016-08-01T13:54:57.306Z,46.78
2016-08-01T13:56:42.430Z,47.81
2016-08-01T13:57:42.461Z,47.91